createdAt,value
2022-08-29T00:01:33.714Z,2.58
2022-08-29T00:04:02.278Z,4.53
2022-08-29T00:06:30.528Z,4.53
2022-08-29T00:08:57.983Z,4.35
2022-08-29T00:11:25.589Z,3.75
2022-08-29T00:13:53.093Z,3.55
2022-08-29T00:16:21.681Z,2.90
2022-08-29T00:18:51.918Z,4.28
2022-08-29T00:21:21.352Z,6.50
2022-08-29T00:23:48.767Z,4.47
2022-08-29T00:26:16.217Z,5.40
2022-08-29T00:28:43.696Z,4.72
2022-08-29T00:31:11.303Z,3.60
2022-08-29T00:33:39.334Z,3.60
2022-08-29T00:36:08.313Z,5.35
2022-08-29T00:38:36.711Z,3.78
2022-08-29T00:41:04.927Z,6.40
2022-08-29T00:43:34.877Z,3.25
2022-08-29T00:46:11.631Z,3.20
2022-08-29T00:48:41.140Z,3.83
2022-08-29T00:51:15.089Z,5.45
2022-08-29T00:53:45.770Z,4.57
2022-08-29T00:56:17.262Z,4.28
2022-08-29T00:58:53.426Z,5.10
2022-08-29T01:01:23.244Z,4.13
2022-08-29T01:03:52.614Z,4.10
2022-08-29T01:06:22.433Z,3.60
2022-08-29T01:08:57.241Z,5.43
2022-08-29T01:11:46.535Z,3.70
2022-08-29T01:14:15.754Z,4.68
2022-08-29T01:16:43.647Z,5.47
2022-08-29T01:19:43.314Z,3.85
2022-08-29T01:22:29.903Z,3.72
2022-08-29T01:24:58.878Z,4.20
2022-08-29T01:27:30.372Z,4.97
2022-08-29T01:29:59.236Z,6.03
2022-08-29T01:32:27.446Z,4.95
2022-08-29T01:34:54.940Z,5.45
2022-08-29T01:37:22.590Z,3.75
2022-08-29T01:39:50.192Z,3.53
2022-08-29T01:42:21.607Z,6.07
2022-08-29T01:44:56.137Z,4.83
2022-08-29T01:47:28.073Z,4.40
2022-08-29T01:49:56.387Z,5.13
2022-08-29T01:52:24.397Z,6.15
2022-08-29T01:54:52.142Z,6.60
2022-08-29T01:57:19.706Z,4.72
2022-08-29T01:59:47.542Z,8.57
2022-08-29T02:02:19.633Z,6.35
2022-08-29T02:04:48.496Z,10.13
2022-08-29T02:07:17.826Z,5.50
2022-08-29T02:09:46.187Z,5.60
2022-08-29T02:12:14.862Z,6.32
2022-08-29T02:14:43.028Z,6.68
2022-08-29T02:17:11.314Z,5.75
2022-08-29T02:19:39.360Z,9.40
2022-08-29T02:22:07.714Z,13.18
2022-08-29T02:24:35.453Z,11.32
2022-08-29T02:27:03.137Z,7.47
2022-08-29T02:29:37.504Z,9.35
2022-08-29T02:32:09.456Z,8.95
2022-08-29T02:34:37.814Z,11.23
2022-08-29T02:37:06.255Z,11.57
2022-08-29T02:39:34.398Z,7.72
2022-08-29T02:42:02.359Z,6.18
2022-08-29T02:44:29.927Z,10.57
2022-08-29T02:46:57.488Z,7.00
2022-08-29T02:49:25.045Z,10.98
2022-08-29T02:51:55.362Z,8.98
2022-08-29T02:54:23.655Z,7.03
2022-08-29T02:56:51.314Z,8.60
2022-08-29T02:59:18.770Z,8.90
2022-08-29T03:01:47.054Z,7.90
2022-08-29T03:04:14.579Z,7.25
2022-08-29T03:06:42.094Z,9.73
2022-08-29T03:09:09.703Z,7.45
2022-08-29T03:11:37.176Z,9.18
2022-08-29T03:14:04.946Z,12.98
2022-08-29T03:16:32.406Z,8.07
2022-08-29T03:18:59.832Z,10.45
2022-08-29T03:21:27.745Z,8.02
2022-08-29T03:23:56.455Z,8.05
2022-08-29T03:26:24.911Z,11.48
2022-08-29T03:28:52.686Z,10.77
2022-08-29T03:31:20.859Z,10.48
2022-08-29T03:33:48.435Z,14.73
2022-08-29T03:36:16.312Z,9.20
2022-08-29T03:38:46.479Z,9.98
2022-08-29T03:41:22.515Z,12.38
2022-08-29T03:43:50.442Z,13.13
2022-08-29T03:46:18.005Z,9.18
2022-08-29T03:48:45.574Z,11.27
2022-08-29T03:51:13.084Z,10.95
2022-08-29T03:53:40.868Z,10.63
2022-08-29T03:56:14.034Z,12.00
2022-08-29T03:58:52.857Z,13.57
2022-08-29T04:01:26.942Z,11.90
2022-08-29T04:03:55.734Z,13.45
2022-08-29T04:06:25.054Z,13.73
2022-08-29T04:08:53.246Z,14.02
2022-08-29T04:11:24.020Z,11.90
2022-08-29T04:13:53.063Z,16.63
2022-08-29T04:16:30.938Z,18.52
2022-08-29T04:18:59.958Z,27.40
2022-08-29T04:21:27.804Z,17.40
2022-08-29T04:23:55.550Z,13.50
2022-08-29T04:26:38.478Z,13.18
2022-08-29T04:29:08.808Z,11.98
2022-08-29T04:31:37.231Z,9.63
2022-08-29T04:34:06.536Z,10.07
2022-08-29T04:36:38.660Z,13.00
2022-08-29T04:39:06.498Z,13.00
2022-08-29T04:41:35.039Z,12.48
2022-08-29T04:44:03.402Z,15.75
2022-08-29T04:46:32.201Z,13.27
2022-08-29T04:49:03.939Z,12.88
2022-08-29T04:51:35.737Z,14.75
2022-08-29T04:54:04.636Z,12.55
2022-08-29T04:56:32.196Z,15.38
2022-08-29T04:58:59.682Z,12.80
2022-08-29T05:01:27.551Z,12.63
2022-08-29T05:03:56.531Z,11.20
2022-08-29T05:06:25.185Z,11.77
2022-08-29T05:08:59.404Z,13.27
2022-08-29T05:11:29.833Z,10.40
2022-08-29T05:13:58.738Z,9.93
2022-08-29T05:16:26.323Z,10.02
2022-08-29T05:18:53.866Z,13.35
2022-08-29T05:21:27.626Z,12.80
2022-08-29T05:23:58.673Z,15.52
2022-08-29T05:26:40.106Z,13.27
2022-08-29T05:29:11.612Z,14.38
2022-08-29T05:31:41.248Z,15.95
2022-08-29T05:34:32.288Z,14.77
2022-08-29T05:36:59.631Z,16.98
2022-08-29T05:39:27.033Z,14.35
2022-08-29T05:41:58.514Z,14.88
2022-08-29T05:44:29.554Z,11.50
2022-08-29T05:47:03.430Z,16.75
2022-08-29T05:49:30.817Z,13.07
2022-08-29T05:52:00.679Z,14.18
2022-08-29T05:54:30.238Z,12.85
2022-08-29T05:56:58.124Z,12.98
2022-08-29T05:59:25.765Z,14.90
2022-08-29T06:01:53.218Z,15.15
2022-08-29T06:04:20.928Z,13.18
2022-08-29T06:06:48.491Z,14.30
2022-08-29T06:09:15.930Z,10.63
2022-08-29T06:11:48.342Z,7.88
2022-08-29T06:14:16.971Z,10.13
2022-08-29T06:16:44.386Z,11.50
2022-08-29T06:19:12.648Z,17.42
2022-08-29T06:21:40.129Z,16.85
2022-08-29T06:24:07.998Z,12.10
2022-08-29T06:26:35.754Z,12.65
2022-08-29T06:29:07.946Z,14.65
2022-08-29T06:31:36.075Z,12.00
2022-08-29T06:34:06.870Z,11.80
2022-08-29T06:36:37.000Z,13.68
2022-08-29T06:39:09.771Z,13.65
2022-08-29T06:41:42.139Z,9.00
2022-08-29T06:44:10.573Z,14.23
2022-08-29T06:46:41.141Z,8.88
2022-08-29T06:49:11.996Z,9.25
2022-08-29T06:51:42.398Z,14.90
2022-08-29T06:54:13.611Z,13.85
2022-08-29T06:56:42.372Z,11.43
2022-08-29T06:59:10.384Z,9.48
2022-08-29T07:01:38.454Z,10.25
2022-08-29T07:04:06.138Z,7.28
2022-08-29T07:06:43.149Z,8.13
2022-08-29T07:09:11.114Z,6.18
2022-08-29T07:11:41.310Z,9.93
2022-08-29T07:14:09.561Z,7.18
2022-08-29T07:16:37.665Z,7.05
2022-08-29T07:19:07.055Z,6.40
2022-08-29T07:21:34.975Z,8.32
2022-08-29T07:24:03.238Z,7.82
2022-08-29T07:26:38.739Z,6.18
2022-08-29T07:29:10.998Z,8.25
2022-08-29T07:31:39.250Z,11.23
2022-08-29T07:34:07.839Z,7.30
2022-08-29T07:36:36.313Z,9.55
2022-08-29T07:39:08.824Z,7.18
2022-08-29T07:41:38.870Z,6.32
2022-08-29T07:44:06.717Z,5.78
2022-08-29T07:46:34.822Z,9.52
2022-08-29T07:49:02.532Z,6.57
2022-08-29T07:51:30.261Z,8.38
2022-08-29T07:53:57.833Z,5.80
2022-08-29T07:56:34.545Z,5.78
2022-08-29T07:59:08.086Z,5.53
2022-08-29T08:01:36.464Z,6.97
2022-08-29T08:04:04.549Z,8.35
2022-08-29T08:06:34.441Z,7.95
2022-08-29T08:09:05.458Z,4.70
2022-08-29T08:11:33.416Z,5.35
2022-08-29T08:14:02.198Z,5.32
2022-08-29T08:16:30.539Z,8.10
2022-08-29T08:18:58.477Z,5.30
2022-08-29T08:21:27.170Z,5.03
2022-08-29T08:23:54.778Z,4.28
2022-08-29T08:26:23.110Z,5.63
2022-08-29T08:28:51.166Z,5.00
2022-08-29T08:31:19.415Z,4.60
2022-08-29T08:33:47.287Z,3.90
2022-08-29T08:36:16.089Z,6.18
2022-08-29T08:38:44.354Z,5.05
2022-08-29T08:41:27.559Z,5.53
2022-08-29T08:43:58.198Z,5.22
2022-08-29T08:46:31.122Z,5.85
2022-08-29T08:49:06.030Z,10.48
2022-08-29T08:51:35.522Z,8.40
2022-08-29T08:54:08.844Z,8.52
2022-08-29T08:56:42.450Z,5.13
2022-08-29T08:59:20.901Z,5.22
2022-08-29T09:02:06.641Z,5.00
2022-08-29T09:04:54.053Z,5.28
2022-08-29T09:07:25.556Z,5.43
2022-08-29T09:13:04.382Z,8.80
2022-08-29T09:15:42.658Z,11.27
2022-08-29T09:18:27.281Z,7.93
2022-08-29T09:20:55.162Z,4.57
2022-08-29T09:23:41.225Z,6.65
2022-08-29T09:26:13.121Z,5.63
2022-08-29T09:28:41.019Z,4.68
2022-08-29T09:31:17.276Z,7.03
2022-08-29T09:33:49.175Z,6.43
2022-08-29T09:36:42.824Z,6.40
2022-08-29T09:39:34.040Z,5.55
2022-08-29T09:42:13.655Z,4.97
2022-08-29T09:44:51.151Z,5.50
2022-08-29T09:47:29.854Z,4.47
2022-08-29T09:50:09.229Z,7.00
2022-08-29T09:52:51.671Z,6.45
2022-08-29T09:55:21.723Z,4.57
2022-08-29T09:57:56.988Z,4.93
2022-08-29T10:00:28.342Z,4.25
2022-08-29T10:02:59.358Z,10.80
2022-08-29T10:05:35.907Z,11.32
2022-08-29T10:08:06.486Z,5.70
2022-08-29T10:10:36.506Z,8.02
2022-08-29T10:13:22.668Z,4.70
2022-08-29T10:16:08.327Z,6.05
2022-08-29T10:18:58.915Z,5.53
2022-08-29T10:21:47.214Z,9.48
2022-08-29T10:24:49.058Z,6.50
2022-08-29T10:30:07.729Z,8.35
2022-08-29T10:32:41.213Z,5.95
2022-08-29T10:35:17.707Z,9.95
2022-08-29T10:38:14.228Z,5.13
2022-08-29T10:40:58.549Z,6.45
2022-08-29T10:43:58.242Z,9.75
2022-08-29T10:46:44.374Z,7.68
2022-08-29T10:49:27.730Z,7.88
2022-08-29T10:52:29.638Z,5.93
2022-08-29T10:57:47.378Z,6.10
2022-08-29T11:00:22.743Z,6.88
2022-08-29T11:03:08.205Z,8.35
2022-08-29T11:05:53.843Z,7.88
2022-08-29T11:08:43.014Z,6.82
2022-08-29T11:11:10.472Z,6.25
2022-08-29T11:13:43.922Z,6.35
2022-08-29T11:16:34.043Z,6.47
2022-08-29T11:19:22.733Z,9.43
2022-08-29T11:22:09.757Z,6.47
2022-08-29T11:24:42.004Z,7.20
2022-08-29T11:27:37.234Z,11.85
2022-08-29T11:30:24.870Z,7.97
2022-08-29T11:33:04.007Z,10.07
2022-08-29T11:35:43.547Z,11.10
2022-08-29T11:38:52.487Z,6.53
2022-08-29T11:41:41.174Z,8.05
2022-08-29T11:44:19.275Z,8.65
2022-08-29T11:46:53.492Z,11.40
2022-08-29T11:49:45.459Z,8.07
2022-08-29T11:52:22.448Z,5.80
2022-08-29T11:55:21.289Z,7.40
2022-08-29T11:57:53.786Z,8.25
2022-08-29T12:00:37.645Z,8.50
2022-08-29T12:03:34.949Z,9.20
2022-08-29T12:06:24.467Z,9.45
2022-08-29T12:09:19.346Z,16.90
2022-08-29T12:12:04.553Z,7.40
2022-08-29T12:14:42.388Z,10.30
2022-08-29T12:17:31.870Z,8.10
2022-08-29T12:20:10.234Z,7.22
2022-08-29T12:25:55.192Z,8.50
2022-08-29T12:28:47.112Z,5.18
2022-08-29T12:31:23.868Z,6.22
2022-08-29T12:34:03.858Z,6.70
2022-08-29T12:37:16.277Z,5.10
2022-08-29T12:40:03.942Z,6.25
2022-08-29T12:42:54.963Z,7.07
2022-08-29T12:45:31.795Z,4.45
2022-08-29T12:48:04.779Z,3.67
2022-08-29T12:50:43.904Z,6.15
2022-08-29T12:53:27.754Z,5.97
2022-08-29T12:55:58.233Z,4.75
2022-08-29T12:58:36.945Z,6.15
2022-08-29T13:01:09.406Z,3.85
2022-08-29T13:03:36.939Z,5.70
2022-08-29T13:06:08.560Z,5.25
2022-08-29T13:08:39.343Z,5.93
2022-08-29T13:11:10.639Z,4.65
2022-08-29T13:13:38.620Z,7.53
2022-08-29T13:16:08.065Z,6.78
2022-08-29T13:18:53.662Z,5.45
2022-08-29T13:21:25.115Z,4.53
2022-08-29T13:24:19.972Z,7.28
2022-08-29T13:27:03.361Z,4.72
2022-08-29T13:29:42.032Z,6.55
2022-08-29T13:32:26.492Z,6.68
2022-08-29T13:35:08.928Z,8.27
2022-08-29T13:37:41.581Z,4.20
2022-08-29T13:40:32.383Z,3.70
2022-08-29T13:43:01.258Z,7.35
2022-08-29T13:45:28.838Z,4.20
2022-08-29T13:48:12.689Z,7.00
2022-08-29T13:50:40.989Z,5.90
2022-08-29T13:53:08.678Z,4.10
2022-08-29T13:55:36.443Z,7.10
2022-08-29T13:58:04.565Z,4.50
2022-08-29T14:00:35.464Z,4.35
2022-08-29T14:03:06.476Z,3.47
2022-08-29T14:05:35.355Z,6.13
2022-08-29T14:08:03.311Z,5.30
2022-08-29T14:10:30.780Z,5.68
2022-08-29T14:12:58.328Z,6.43
2022-08-29T14:15:26.587Z,5.03
2022-08-29T14:17:54.335Z,4.97
2022-08-29T14:20:22.380Z,9.05
2022-08-29T14:22:50.011Z,5.95
2022-08-29T14:25:20.033Z,4.07
2022-08-29T14:27:48.367Z,7.55
2022-08-29T14:30:19.202Z,4.68
2022-08-29T14:32:46.612Z,11.00
2022-08-29T14:35:25.994Z,6.18
2022-08-29T14:37:56.090Z,6.00
2022-08-29T14:40:25.602Z,13.88
2022-08-29T14:42:53.298Z,5.22
2022-08-29T14:45:21.199Z,7.80
2022-08-29T14:47:48.742Z,5.38
2022-08-29T14:50:16.230Z,8.13
2022-08-29T14:52:43.842Z,7.18
2022-08-29T14:55:12.680Z,4.15
2022-08-29T14:57:40.911Z,5.18
2022-08-29T15:00:15.701Z,3.67
2022-08-29T15:02:43.372Z,3.83
2022-08-29T15:05:11.939Z,4.22
2022-08-29T15:07:40.351Z,8.45
2022-08-29T15:10:08.262Z,5.80
2022-08-29T15:12:35.863Z,7.88
2022-08-29T15:15:04.117Z,7.07
2022-08-29T15:17:31.554Z,5.90
2022-08-29T15:22:46.714Z,4.40
2022-08-29T15:25:14.358Z,6.35
2022-08-29T15:27:41.953Z,5.45
2022-08-29T15:30:10.624Z,5.68
2022-08-29T15:32:39.084Z,8.77
2022-08-29T15:35:07.856Z,9.90
2022-08-29T15:37:42.310Z,6.13
2022-08-29T15:40:13.160Z,6.70
2022-08-29T15:42:41.307Z,5.80
2022-08-29T15:45:10.348Z,4.55
2022-08-29T15:47:39.859Z,4.97
2022-08-29T15:50:09.756Z,7.28
2022-08-29T15:52:37.999Z,4.68
2022-08-29T15:55:06.114Z,4.65
2022-08-29T15:57:33.671Z,5.13
2022-08-29T16:00:11.835Z,3.90
2022-08-29T16:02:44.282Z,3.95
2022-08-29T16:05:12.344Z,5.93
2022-08-29T16:07:39.814Z,5.78
2022-08-29T16:10:11.071Z,3.80
2022-08-29T16:12:39.801Z,6.60
2022-08-29T16:15:09.958Z,7.40
2022-08-29T16:17:38.124Z,5.25
2022-08-29T16:20:11.382Z,4.05
2022-08-29T16:22:40.343Z,6.97
2022-08-29T16:25:09.955Z,7.07
2022-08-29T16:27:37.550Z,4.53
2022-08-29T16:30:06.154Z,5.28
2022-08-29T16:32:33.942Z,7.95
2022-08-29T16:35:01.360Z,4.82
2022-08-29T16:37:29.040Z,6.18
2022-08-29T16:39:56.571Z,6.25
2022-08-29T16:42:27.557Z,5.95
2022-08-29T16:44:58.794Z,6.50
2022-08-29T16:47:27.902Z,4.38
2022-08-29T16:49:55.350Z,5.50
2022-08-29T16:52:22.838Z,4.45
2022-08-29T16:54:52.144Z,4.90
2022-08-29T16:57:22.663Z,5.65
2022-08-29T16:59:50.349Z,6.18
2022-08-29T17:02:18.485Z,7.18
2022-08-29T17:04:46.978Z,4.50
2022-08-29T17:07:14.708Z,6.38
2022-08-29T17:09:42.211Z,4.90
2022-08-29T17:12:09.922Z,5.70
2022-08-29T17:14:37.475Z,6.03
2022-08-29T17:17:05.436Z,5.70
2022-08-29T17:19:34.119Z,7.80
2022-08-29T17:22:01.916Z,7.32
2022-08-29T17:24:29.643Z,7.05
2022-08-29T17:26:57.683Z,4.25
2022-08-29T17:29:25.419Z,7.13
2022-08-29T17:31:53.645Z,5.03
2022-08-29T17:34:21.214Z,10.27
2022-08-29T17:36:49.745Z,10.20
2022-08-29T17:39:17.349Z,4.75
2022-08-29T17:41:50.611Z,5.70
2022-08-29T17:44:18.722Z,7.60
2022-08-29T17:46:49.361Z,5.00
2022-08-29T17:49:17.162Z,4.40
2022-08-29T17:51:45.098Z,5.65
2022-08-29T17:54:23.754Z,10.43
2022-08-29T17:56:54.863Z,6.07
2022-08-29T17:59:24.119Z,10.13
2022-08-29T18:01:51.849Z,9.65
2022-08-29T18:04:19.856Z,13.82
2022-08-29T18:06:47.423Z,16.25
2022-08-29T18:09:15.346Z,11.93
2022-08-29T18:11:46.831Z,18.42
2022-08-29T18:14:14.683Z,20.85
2022-08-29T18:16:42.327Z,18.15
2022-08-29T18:19:09.875Z,14.90
2022-08-29T18:21:37.492Z,20.33
2022-08-29T18:24:05.465Z,15.18
2022-08-29T18:26:34.924Z,20.38
2022-08-29T18:29:02.559Z,12.15
2022-08-29T18:31:30.025Z,10.57
2022-08-29T18:34:00.539Z,8.60
2022-08-29T18:36:30.408Z,9.70
2022-08-29T18:38:59.026Z,12.02
2022-08-29T18:41:26.866Z,9.60
2022-08-29T18:43:54.485Z,7.03
2022-08-29T18:46:22.245Z,16.77
2022-08-29T18:48:49.896Z,23.20
2022-08-29T18:51:17.562Z,12.45
2022-08-29T18:53:46.225Z,8.20
2022-08-29T18:56:13.947Z,7.40
2022-08-29T18:58:44.255Z,9.30
2022-08-29T19:01:27.355Z,20.25
2022-08-29T19:04:02.644Z,12.13
2022-08-29T19:06:30.642Z,16.65
2022-08-29T19:08:58.424Z,7.72
2022-08-29T19:11:28.223Z,18.02
2022-08-29T19:13:56.167Z,19.38
2022-08-29T19:16:24.103Z,20.67
2022-08-29T19:18:52.582Z,15.32
2022-08-29T19:21:20.273Z,20.48
2022-08-29T19:23:52.575Z,14.50
2022-08-29T19:26:32.983Z,9.15
2022-08-29T19:29:05.300Z,9.95
2022-08-29T19:31:32.985Z,12.75
2022-08-29T19:34:00.929Z,12.90
2022-08-29T19:36:28.402Z,7.93
2022-08-29T19:38:56.049Z,11.75
2022-08-29T19:44:11.396Z,11.73
2022-08-29T19:46:39.236Z,11.38
2022-08-29T19:51:40.340Z,16.55
2022-08-29T19:54:08.710Z,13.27
2022-08-29T19:56:40.138Z,14.27
2022-08-29T19:59:14.349Z,15.57
2022-08-29T20:01:45.008Z,12.38
2022-08-29T20:04:12.895Z,8.07
2022-08-29T20:06:40.358Z,11.50
2022-08-29T20:09:11.810Z,8.45
2022-08-29T20:11:43.921Z,13.25
2022-08-29T20:14:11.538Z,15.25
2022-08-29T20:16:42.019Z,9.43
2022-08-29T20:19:11.936Z,13.35
2022-08-29T20:21:40.945Z,9.43
2022-08-29T20:24:08.398Z,12.63
2022-08-29T20:26:37.575Z,10.35
2022-08-29T20:29:07.791Z,8.10
2022-08-29T20:31:36.358Z,11.75
2022-08-29T20:34:04.059Z,10.50
2022-08-29T20:36:50.273Z,13.20
2022-08-29T20:39:20.039Z,12.25
2022-08-29T20:41:50.188Z,10.05
2022-08-29T20:44:20.337Z,10.20
2022-08-29T20:46:48.771Z,11.02
2022-08-29T20:49:22.622Z,9.32
2022-08-29T20:51:50.995Z,9.10
2022-08-29T20:54:22.195Z,10.98
2022-08-29T20:56:50.181Z,10.48
2022-08-29T20:59:19.167Z,12.40
2022-08-29T21:01:47.996Z,10.30
2022-08-29T21:04:34.706Z,12.00
2022-08-29T21:07:07.353Z,15.50
2022-08-29T21:09:43.356Z,14.45
2022-08-29T21:12:13.063Z,14.57
2022-08-29T21:14:40.726Z,14.88
2022-08-29T21:17:10.975Z,12.85
2022-08-29T21:19:38.837Z,12.23
2022-08-29T21:22:08.500Z,12.57
2022-08-29T21:24:36.007Z,14.82
2022-08-29T21:27:04.124Z,15.50
2022-08-29T21:29:31.919Z,15.07
2022-08-29T21:31:59.517Z,16.70
2022-08-29T21:34:27.043Z,15.02
2022-08-29T21:36:54.524Z,15.18
2022-08-29T21:39:28.885Z,16.52
2022-08-29T21:41:57.157Z,18.77
2022-08-29T21:44:24.759Z,18.95
2022-08-29T21:46:52.746Z,16.13
2022-08-29T21:49:21.883Z,12.93
2022-08-29T21:51:49.839Z,13.98
2022-08-29T21:54:18.129Z,13.75
2022-08-29T21:56:46.387Z,12.18
2022-08-29T21:59:16.761Z,16.10
2022-08-29T22:01:46.262Z,11.98
2022-08-29T22:04:18.884Z,12.50
2022-08-29T22:06:55.496Z,12.10
2022-08-29T22:09:25.678Z,13.68
2022-08-29T22:11:53.347Z,14.07
2022-08-29T22:14:21.079Z,17.55
2022-08-29T22:16:49.394Z,16.45
2022-08-29T22:19:17.979Z,16.98
2022-08-29T22:21:49.433Z,14.30
2022-08-29T22:24:18.018Z,17.52
2022-08-29T22:26:47.216Z,11.52
2022-08-29T22:29:16.193Z,13.77
2022-08-29T22:31:44.996Z,15.27
2022-08-29T22:34:14.357Z,13.70
2022-08-29T22:36:42.190Z,11.23
2022-08-29T22:39:09.808Z,12.35
2022-08-29T22:41:37.481Z,12.50
2022-08-29T22:46:54.046Z,13.82
2022-08-29T22:49:21.694Z,10.65
2022-08-29T22:51:49.246Z,10.57
2022-08-29T22:54:35.206Z,12.77
2022-08-29T22:57:09.096Z,13.77
2022-08-29T22:59:37.892Z,10.60
2022-08-29T23:02:06.522Z,15.30
2022-08-29T23:04:34.649Z,16.48
2022-08-29T23:07:03.080Z,11.60
2022-08-29T23:09:35.326Z,13.75
2022-08-29T23:12:05.612Z,10.32
2022-08-29T23:14:36.039Z,14.23
2022-08-29T23:17:08.750Z,11.18
2022-08-29T23:19:37.043Z,12.32
2022-08-29T23:22:11.352Z,11.23
2022-08-29T23:24:41.570Z,13.57
2022-08-29T23:27:28.034Z,10.25
2022-08-29T23:29:55.781Z,14.60
2022-08-29T23:32:23.253Z,10.80
2022-08-29T23:34:50.692Z,11.90
2022-08-29T23:37:18.223Z,14.23
2022-08-29T23:39:46.809Z,10.75
2022-08-29T23:42:14.285Z,14.15
2022-08-29T23:44:41.713Z,13.23
2022-08-29T23:47:09.198Z,16.02
2022-08-29T23:49:36.631Z,15.20
2022-08-29T23:52:04.917Z,10.63
2022-08-29T23:54:32.430Z,14.55
2022-08-29T23:56:59.834Z,12.18
2022-08-29T23:59:45.720Z,16.88
